createdAt,value
2022-11-25T08:24:22.180Z,972.04
2022-11-25T08:24:55.149Z,972.04
2022-11-25T08:25:55.186Z,972.01
2022-11-25T08:26:55.235Z,972.05
2022-11-25T08:27:55.278Z,972.06
2022-11-25T08:28:55.358Z,972.09
2022-11-25T08:29:55.384Z,972.08
2022-11-25T08:30:55.431Z,972.14
2022-11-25T08:31:55.463Z,972.16
2022-11-25T08:32:55.508Z,972.21
2022-11-25T08:35:20.347Z,972.24
2022-11-25T08:36:20.384Z,972.23
2022-11-25T08:37:20.407Z,972.29
2022-11-25T08:38:20.459Z,972.32
2022-11-25T08:40:20.553Z,972.30
2022-11-25T08:41:20.620Z,972.27
2022-11-25T08:42:20.652Z,972.29
2022-11-25T08:43:25.003Z,972.33
2022-11-25T08:44:20.719Z,972.32
2022-11-25T08:45:20.777Z,972.32
2022-11-25T08:46:20.982Z,972.32
2022-11-25T08:47:20.883Z,972.33
2022-11-25T08:48:20.910Z,972.33
2022-11-25T08:49:20.952Z,972.29
2022-11-25T08:54:31.565Z,972.40
2022-11-25T08:55:12.561Z,972.44
2022-11-25T08:56:12.607Z,972.42
2022-11-25T08:57:12.665Z,972.42
2022-11-25T08:58:13.487Z,972.44
2022-11-25T09:30:02.431Z,972.60
2022-11-25T09:30:35.424Z,972.62
2022-11-25T09:31:35.486Z,972.60
2022-11-25T09:32:35.510Z,972.64
2022-11-25T09:33:35.542Z,972.64
2022-11-25T10:58:02.255Z,972.77
2022-11-25T10:59:02.252Z,972.78
2022-11-25T11:00:02.298Z,972.80
2022-11-25T11:01:02.355Z,972.78
2022-11-25T11:02:02.439Z,972.84
2022-11-25T11:03:02.539Z,972.82
2022-11-25T11:04:02.520Z,972.86
2022-11-25T11:05:02.541Z,972.89
2022-11-25T11:06:02.589Z,972.92
2022-11-25T11:07:02.654Z,972.92
2022-11-25T11:08:31.565Z,972.89
2022-11-25T11:09:02.758Z,972.90
2022-11-25T11:10:02.751Z,972.89
2022-11-25T11:11:02.799Z,972.92
2022-11-25T11:12:02.851Z,972.91
2022-11-25T11:13:02.892Z,972.94
2022-11-25T11:14:02.958Z,972.93
2022-11-25T11:15:02.982Z,972.94
2022-11-25T11:16:03.074Z,972.92
2022-11-25T11:17:03.082Z,972.90
2022-11-25T11:18:03.149Z,972.87
2022-11-25T11:19:03.195Z,972.90
2022-11-25T11:20:03.219Z,972.89
2022-11-25T11:21:03.271Z,972.89
2022-11-25T11:22:03.306Z,972.86
2022-11-25T11:23:08.631Z,972.86
2022-11-25T11:27:59.979Z,972.84
2022-11-25T11:28:27.785Z,972.82
2022-11-25T11:29:00.785Z,972.76
2022-11-25T11:30:00.840Z,972.77
2022-11-25T11:31:01.005Z,972.77
2022-11-25T11:32:00.951Z,972.79
2022-11-25T11:33:00.995Z,972.85
2022-11-25T11:34:01.048Z,972.77
2022-11-25T11:35:01.069Z,972.77
2022-11-25T11:36:01.115Z,972.77
2022-11-25T11:37:01.881Z,972.75
2022-11-25T11:38:01.233Z,972.76
2022-11-25T11:39:01.313Z,972.81
2022-11-25T11:40:01.305Z,972.76
2022-11-25T11:41:01.361Z,972.78
2022-11-25T11:42:01.393Z,972.75
2022-11-25T11:43:01.469Z,972.71
2022-11-25T11:44:01.519Z,972.75
2022-11-25T11:45:01.539Z,972.70
2022-11-25T11:46:02.373Z,972.67
2022-11-25T11:47:01.717Z,972.64
2022-11-25T11:48:01.686Z,972.62
2022-11-25T11:49:01.735Z,972.60
2022-11-25T11:50:01.776Z,972.58
2022-11-25T11:51:02.369Z,972.54
2022-11-25T11:52:01.896Z,972.54
2022-11-25T11:53:01.918Z,972.50
2022-11-25T11:54:02.877Z,972.51
2022-11-25T11:55:02.019Z,972.51
2022-11-25T11:56:32.882Z,972.49
2022-11-25T11:57:02.151Z,972.49
2022-11-25T11:58:02.156Z,972.46
2022-11-25T11:59:02.195Z,972.48
2022-11-25T12:00:02.277Z,972.45
2022-11-25T12:01:02.366Z,972.43
2022-11-25T12:02:02.385Z,972.43
2022-11-25T12:03:02.471Z,972.42
2022-11-25T12:04:02.438Z,972.43
2022-11-25T12:05:02.493Z,972.39
2022-11-25T12:06:02.595Z,972.44
2022-11-25T12:07:03.389Z,972.45
2022-11-25T12:08:02.713Z,972.41
2022-11-25T12:09:02.699Z,972.39
2022-11-25T12:10:03.618Z,972.38
2022-11-25T12:11:02.809Z,972.40
2022-11-25T12:12:02.814Z,972.40
2022-11-25T12:13:02.860Z,972.42
2022-11-25T12:14:02.916Z,972.38
2022-11-25T12:15:03.892Z,972.43
2022-11-25T12:16:03.086Z,972.46
2022-11-25T12:17:03.051Z,972.41
2022-11-25T12:56:14.364Z,972.69
2022-11-25T12:57:14.378Z,972.69
2022-11-25T12:58:14.439Z,972.77
2022-11-25T12:59:14.501Z,972.72
2022-11-25T13:01:14.624Z,972.70
2022-11-25T13:02:14.644Z,972.72
2022-11-25T13:03:14.650Z,972.69
2022-11-25T13:04:14.731Z,972.73
2022-11-25T13:05:39.704Z,972.75
2022-11-25T13:06:14.803Z,972.72
2022-11-25T13:07:14.892Z,972.75
2022-11-25T13:08:14.887Z,972.79
2022-11-25T13:09:14.947Z,972.84
2022-11-25T13:10:15.003Z,972.82
2022-11-25T13:11:15.265Z,972.89
2022-11-25T13:12:15.321Z,972.86
2022-11-25T13:13:18.269Z,972.90
2022-11-25T13:14:16.100Z,972.88
2022-11-25T13:15:15.532Z,972.88
2022-11-25T13:16:15.741Z,972.92
2022-11-25T13:17:15.703Z,972.95
2022-11-25T13:18:15.424Z,972.97
2022-11-25T13:19:15.396Z,972.93
2022-11-25T13:20:16.291Z,972.95
2022-11-25T13:21:15.509Z,972.94
2022-11-25T13:22:15.536Z,972.99
2022-11-25T13:23:15.605Z,973.05
2022-11-25T13:24:15.637Z,973.03
2022-11-25T13:25:15.696Z,973.01
2022-11-25T13:26:15.724Z,973.09
2022-11-25T13:27:15.843Z,973.05
2022-11-25T13:28:15.855Z,973.07
2022-11-25T13:29:15.902Z,973.12
2022-11-25T13:30:15.940Z,973.14
2022-11-25T13:31:16.102Z,973.16
2022-11-25T13:32:16.032Z,973.15
2022-11-25T13:33:16.051Z,973.17
2022-11-25T13:34:16.128Z,973.22
2022-11-25T13:35:16.151Z,973.19
2022-11-25T13:36:16.202Z,973.24
2022-11-25T13:37:16.350Z,973.28
2022-11-25T13:38:16.317Z,973.25
2022-11-25T13:39:16.371Z,973.31
2022-11-25T13:40:16.403Z,973.30
2022-11-25T13:41:16.477Z,973.33
2022-11-25T13:42:16.473Z,973.31
2022-11-25T13:43:18.999Z,973.30
2022-11-25T13:44:16.577Z,973.36
2022-11-25T13:45:17.275Z,973.31
2022-11-25T13:46:16.805Z,973.31
2022-11-25T13:47:16.722Z,973.33
2022-11-25T13:48:16.748Z,973.33
2022-11-25T13:49:16.802Z,973.35
2022-11-25T13:50:21.762Z,973.32
2022-11-25T13:51:16.944Z,973.40
2022-11-25T13:52:16.970Z,973.34
2022-11-25T13:53:16.993Z,973.39
2022-11-25T13:54:17.055Z,973.44
2022-11-25T13:55:17.080Z,973.42
2022-11-25T13:56:17.163Z,973.44
2022-11-25T13:57:17.207Z,973.42
2022-11-25T13:58:17.291Z,973.41
2022-11-25T13:59:17.263Z,973.44
2022-11-25T14:00:17.319Z,973.43
2022-11-25T14:01:17.354Z,973.44
2022-11-25T14:02:17.499Z,973.49
2022-11-25T14:03:17.507Z,973.51
2022-11-25T14:04:17.531Z,973.46
2022-11-25T14:05:17.648Z,973.48
2022-11-25T14:06:17.601Z,973.50
2022-11-25T14:07:20.031Z,973.52
2022-11-25T14:08:17.746Z,973.50
2022-11-25T14:09:17.724Z,973.54
2022-11-25T14:10:17.806Z,973.53
2022-11-25T14:11:17.848Z,973.57
2022-11-25T14:12:17.877Z,973.53
2022-11-25T14:13:17.913Z,973.57
2022-11-25T14:14:17.992Z,973.60
2022-11-25T14:15:18.003Z,973.59
2022-11-25T14:16:18.095Z,973.63
2022-11-25T14:17:18.103Z,973.61
2022-11-25T14:18:18.142Z,973.68
2022-11-25T14:20:18.269Z,973.71
2022-11-25T14:21:18.283Z,973.71
2022-11-25T14:22:18.335Z,973.77
2022-11-25T14:23:22.173Z,973.72
2022-11-25T14:24:18.426Z,973.75
2022-11-25T14:25:18.491Z,973.79
2022-11-25T14:26:42.220Z,973.83
2022-11-25T14:27:18.558Z,973.80
2022-11-25T14:28:18.639Z,973.80
2022-11-25T14:29:18.655Z,973.82
2022-11-25T14:30:18.704Z,973.82
2022-11-25T14:31:18.775Z,973.85
2022-11-25T14:32:18.789Z,973.87
2022-11-25T14:33:18.867Z,973.89
2022-11-25T14:34:18.880Z,973.92
2022-11-25T14:35:18.932Z,973.93
2022-11-25T14:36:18.978Z,974.00
2022-11-25T14:37:19.043Z,973.97
2022-11-25T14:38:19.091Z,974.04
2022-11-25T14:39:19.114Z,974.04
2022-11-25T14:40:19.200Z,974.07
2022-11-25T14:41:19.214Z,974.09
2022-11-25T14:42:19.262Z,974.14
2022-11-25T14:43:19.302Z,974.13
2022-11-25T14:44:19.353Z,974.16
2022-11-25T14:45:19.421Z,974.15
2022-11-25T14:46:19.485Z,974.18
2022-11-25T14:47:19.518Z,974.24
2022-11-25T14:48:19.567Z,974.22
2022-11-25T14:49:44.950Z,974.24
2022-11-25T14:50:34.255Z,974.25
2022-11-25T14:51:19.676Z,974.28
2022-11-25T14:52:19.727Z,974.28
2022-11-25T14:53:19.795Z,974.27
2022-11-25T14:54:19.816Z,974.27
2022-11-25T14:55:19.864Z,974.28
2022-11-25T14:56:19.925Z,974.28
2022-11-25T14:57:20.014Z,974.33
2022-11-25T14:58:19.991Z,974.30
2022-11-25T14:59:20.047Z,974.32
2022-11-25T15:00:20.113Z,974.34
2022-11-25T15:01:20.135Z,974.33
2022-11-25T15:02:20.208Z,974.34
2022-11-25T15:03:20.235Z,974.35
2022-11-25T15:04:20.389Z,974.35
2022-11-25T15:05:20.316Z,974.39
2022-11-25T15:06:20.399Z,974.36
2022-11-25T15:07:20.531Z,974.40
2022-11-25T15:08:20.463Z,974.39
2022-11-25T15:09:20.536Z,974.38
2022-11-25T15:10:20.546Z,974.45
2022-11-25T15:11:20.597Z,974.40
2022-11-25T15:12:20.646Z,974.43
2022-11-25T15:13:20.695Z,974.45
2022-11-25T15:14:20.762Z,974.43
2022-11-25T15:15:20.783Z,974.40
2022-11-25T15:16:20.872Z,974.44
2022-11-25T15:17:20.869Z,974.45
2022-11-25T15:18:20.926Z,974.45
2022-11-25T15:19:20.989Z,974.45
2022-11-25T15:20:21.005Z,974.49
2022-11-25T15:21:21.062Z,974.47
2022-11-25T15:22:23.998Z,974.47
2022-11-25T15:23:21.153Z,974.47
2022-11-25T15:24:21.240Z,974.49
2022-11-25T15:25:21.249Z,974.50
2022-11-25T15:26:21.284Z,974.52
2022-11-25T15:27:21.347Z,974.55
2022-11-25T15:28:21.388Z,974.60
2022-11-25T15:29:21.483Z,974.58
2022-11-25T15:30:21.484Z,974.59
2022-11-25T15:31:21.568Z,974.64
2022-11-25T15:32:21.562Z,974.66
2022-11-25T15:33:21.623Z,974.66
2022-11-25T15:34:21.684Z,974.72
2022-11-25T15:35:21.725Z,974.70
2022-11-25T15:36:21.750Z,974.70
2022-11-25T15:37:21.799Z,974.73
2022-11-25T15:38:21.844Z,974.72
2022-11-25T15:39:21.895Z,974.74
2022-11-25T15:40:21.956Z,974.73
2022-11-25T15:41:21.981Z,974.75
2022-11-25T15:42:22.019Z,974.78
2022-11-25T15:43:22.065Z,974.80
2022-11-25T15:44:22.106Z,974.80
2022-11-25T18:29:57.511Z,977.05
2022-11-25T18:30:30.528Z,977.06
2022-11-25T18:31:30.629Z,977.04
2022-11-25T18:32:30.575Z,977.10
2022-11-25T18:33:30.609Z,977.11
2022-11-25T18:34:30.646Z,977.15
2022-11-25T18:35:35.765Z,977.15
2022-11-25T18:36:30.778Z,977.22
2022-11-25T18:37:31.826Z,977.21
2022-11-25T18:47:24.307Z,977.38
2022-11-25T18:48:24.372Z,977.40
2022-11-25T18:49:24.362Z,977.39
2022-11-25T18:50:24.408Z,977.48
2022-11-25T18:51:24.459Z,977.49
2022-11-25T18:52:24.515Z,977.53
2022-11-25T18:53:24.567Z,977.60
2022-11-25T18:54:24.581Z,977.59
2022-11-25T18:55:24.630Z,977.56
2022-11-25T18:56:24.675Z,977.64
2022-11-25T18:57:24.712Z,977.67
2022-11-25T18:58:24.791Z,977.67
2022-11-25T18:59:24.795Z,977.70
2022-11-25T19:00:32.184Z,977.70
2022-11-25T19:01:24.929Z,977.74
2022-11-25T19:02:24.966Z,977.74
2022-11-25T19:03:24.995Z,977.73
2022-11-25T19:04:25.019Z,977.71
2022-11-25T19:05:25.097Z,977.76
2022-11-25T19:06:25.111Z,977.76
2022-11-25T19:07:25.189Z,977.75
2022-11-25T19:08:25.213Z,977.74
2022-11-25T19:09:25.280Z,977.77
2022-11-25T19:10:25.321Z,977.77
2022-11-25T19:11:25.354Z,977.76
2022-11-25T19:12:25.384Z,977.78
2022-11-25T19:13:25.425Z,977.84
2022-11-25T19:14:25.519Z,977.85
2022-11-25T19:15:25.522Z,977.91
2022-11-25T19:16:25.610Z,977.91
2022-11-25T19:17:25.695Z,977.90
2022-11-25T19:18:25.653Z,977.96
2022-11-25T19:19:25.741Z,977.97
2022-11-25T19:20:25.731Z,977.98
2022-11-25T19:21:25.826Z,977.96
2022-11-25T19:22:25.833Z,978.00
2022-11-25T19:23:25.883Z,978.06
2022-11-25T19:24:25.955Z,978.04
2022-11-25T19:25:25.971Z,978.07
2022-11-25T19:26:26.074Z,978.11
2022-11-25T19:27:26.127Z,978.11
2022-11-25T19:28:26.098Z,978.14
2022-11-25T19:29:26.143Z,978.18
2022-11-25T19:30:26.197Z,978.17
2022-11-25T19:31:26.289Z,978.19
2022-11-25T19:32:26.285Z,978.25
2022-11-25T19:33:26.336Z,978.25
2022-11-25T19:34:26.381Z,978.26
2022-11-25T19:35:26.425Z,978.29
2022-11-25T19:36:26.493Z,978.34
2022-11-25T19:37:26.513Z,978.37
2022-11-25T19:38:26.562Z,978.37
2022-11-25T19:39:26.598Z,978.35
2022-11-25T19:40:26.657Z,978.34
2022-11-25T19:41:26.710Z,978.39
2022-11-25T19:42:26.742Z,978.34
2022-11-25T19:43:26.783Z,978.38
2022-11-25T19:44:26.827Z,978.38
2022-11-25T19:45:27.722Z,978.36
2022-11-25T19:46:30.104Z,978.44
2022-11-25T19:47:27.005Z,978.41
2022-11-25T19:48:27.073Z,978.43
2022-11-25T19:49:27.060Z,978.45
2022-11-25T19:50:27.136Z,978.47
2022-11-25T19:51:27.142Z,978.47
2022-11-25T19:52:27.199Z,978.48
2022-11-25T19:53:33.041Z,978.53
2022-11-25T19:54:27.275Z,978.53
2022-11-25T19:55:27.352Z,978.56
2022-11-25T19:56:27.375Z,978.57
2022-11-25T19:57:27.416Z,978.52
2022-11-25T19:58:27.463Z,978.60
2022-11-25T19:59:27.512Z,978.57
2022-11-25T20:00:27.593Z,978.58
2022-11-25T20:01:27.665Z,978.62
2022-11-25T20:02:27.784Z,978.61
2022-11-25T20:03:27.688Z,978.63
2022-11-25T20:04:27.734Z,978.69
2022-11-25T20:05:27.826Z,978.67
2022-11-25T20:06:27.827Z,978.67
2022-11-25T20:07:27.919Z,978.68
2022-11-25T20:08:28.701Z,978.74
2022-11-25T20:09:27.959Z,978.73
2022-11-25T20:10:28.039Z,978.76
2022-11-25T20:11:28.055Z,978.75
2022-11-25T20:12:28.090Z,978.82
2022-11-25T20:13:28.149Z,978.80
2022-11-25T20:14:28.206Z,978.83
2022-11-25T20:15:28.245Z,978.80
2022-11-25T20:16:28.314Z,978.81
2022-11-25T20:17:28.324Z,978.83
2022-11-25T20:18:28.375Z,978.88
2022-11-25T20:19:28.456Z,978.87
2022-11-25T20:20:29.188Z,978.89
2022-11-25T20:21:28.505Z,978.88
2022-11-25T20:22:28.543Z,978.90
2022-11-25T20:23:28.602Z,978.91
2022-11-25T20:24:28.671Z,978.93
2022-11-25T20:25:28.682Z,978.93
2022-11-25T20:26:28.727Z,978.92
2022-11-25T20:27:28.811Z,978.94
2022-11-25T20:28:28.820Z,978.96
2022-11-25T20:29:30.650Z,978.98
2022-11-25T20:30:28.907Z,979.04
2022-11-25T20:31:30.546Z,979.01
2022-11-25T20:32:29.036Z,979.04
2022-11-25T20:33:29.041Z,979.06
2022-11-25T20:34:29.102Z,979.08
2022-11-25T20:35:29.142Z,979.06
2022-11-25T20:36:29.190Z,979.06
2022-11-25T20:37:29.265Z,979.09
2022-11-25T20:38:29.271Z,979.07
2022-11-25T20:39:29.329Z,979.05
2022-11-25T20:40:29.370Z,979.04
2022-11-25T20:41:29.429Z,979.05
2022-11-25T20:42:29.498Z,979.07
2022-11-25T20:43:29.512Z,979.08
2022-11-25T20:44:29.549Z,979.13
2022-11-25T20:45:29.655Z,979.11
2022-11-25T20:46:29.637Z,979.19
2022-11-25T20:47:29.721Z,979.18
2022-11-25T20:48:29.785Z,979.17
2022-11-25T20:49:29.794Z,979.18
2022-11-25T20:50:29.831Z,979.24
2022-11-25T20:51:29.873Z,979.26
2022-11-25T20:52:29.908Z,979.22
2022-11-25T20:53:29.960Z,979.25
2022-11-25T20:54:30.031Z,979.31
2022-11-25T20:55:30.064Z,979.33
2022-11-25T20:56:30.121Z,979.37
2022-11-25T20:57:30.140Z,979.39
2022-11-25T20:58:30.176Z,979.42
2022-11-25T20:59:30.230Z,979.40
2022-11-25T21:00:31.198Z,979.42
2022-11-25T21:01:30.405Z,979.37
2022-11-25T21:02:30.393Z,979.40
2022-11-25T21:03:30.454Z,979.44
2022-11-25T21:04:30.450Z,979.40
2022-11-25T21:05:30.509Z,979.44
2022-11-25T21:06:30.576Z,979.44
2022-11-25T21:07:30.669Z,979.46
2022-11-25T21:08:30.648Z,979.47
2022-11-25T21:09:30.673Z,979.47
2022-11-25T21:10:30.732Z,979.50
2022-11-25T21:11:30.797Z,979.52
2022-11-25T21:12:30.844Z,979.55
2022-11-25T21:13:30.860Z,979.54
2022-11-25T21:14:30.919Z,979.54
2022-11-25T21:15:30.970Z,979.52
2022-11-25T21:16:31.121Z,979.52
2022-11-25T21:17:31.035Z,979.48
2022-11-25T21:18:31.090Z,979.53
2022-11-25T21:19:31.702Z,979.56
2022-11-25T21:20:31.215Z,979.54
2022-11-25T21:21:31.218Z,979.56
2022-11-25T21:22:31.285Z,979.61
2022-11-25T21:23:31.309Z,979.58
2022-11-25T21:24:31.354Z,979.59
2022-11-25T21:25:31.435Z,979.62
2022-11-25T21:26:31.455Z,979.56
2022-11-25T21:27:31.488Z,979.64
2022-11-25T21:28:31.549Z,979.64
2022-11-25T21:29:31.630Z,979.62
2022-11-25T21:30:31.644Z,979.63
2022-11-25T21:31:31.770Z,979.65
2022-11-25T21:32:31.724Z,979.64
2022-11-25T21:33:31.775Z,979.62
2022-11-25T21:34:31.815Z,979.64
2022-11-25T21:35:31.879Z,979.68
2022-11-25T21:36:31.893Z,979.66
2022-11-25T21:37:31.939Z,979.67
2022-11-25T21:38:31.986Z,979.69
2022-11-25T21:39:32.046Z,979.70
2022-11-25T21:40:32.110Z,979.67
2022-11-25T21:41:32.121Z,979.69
2022-11-25T21:42:32.217Z,979.66
2022-11-25T21:43:33.210Z,979.65
2022-11-25T21:44:32.263Z,979.63
2022-11-25T21:45:32.312Z,979.68
2022-11-25T21:46:32.400Z,979.69
2022-11-25T21:47:32.417Z,979.71
2022-11-25T21:48:32.463Z,979.77
2022-11-25T21:49:32.503Z,979.76
2022-11-25T21:50:32.535Z,979.78
2022-11-25T21:51:33.196Z,979.76
2022-11-25T21:52:32.641Z,979.76
2022-11-25T21:53:37.135Z,979.77
2022-11-25T21:54:32.724Z,979.79
2022-11-25T21:55:32.804Z,979.82
2022-11-25T21:56:32.811Z,979.81
2022-11-25T21:57:32.859Z,979.81
2022-11-25T21:58:32.899Z,979.80
2022-11-25T21:59:32.957Z,979.85
2022-11-25T22:00:33.012Z,979.86
2022-11-25T22:01:33.099Z,979.86
2022-11-25T22:02:33.143Z,979.86
2022-11-25T22:03:33.710Z,979.89
2022-11-25T22:04:33.194Z,979.91
2022-11-25T22:05:33.221Z,979.94
2022-11-25T22:06:33.259Z,979.95
2022-11-25T22:07:33.453Z,979.97
2022-11-25T22:08:33.352Z,979.99
2022-11-25T22:09:33.425Z,980.01
2022-11-25T22:10:33.449Z,979.98
2022-11-25T22:11:33.493Z,980.02
2022-11-25T22:12:38.156Z,979.99
2022-11-25T22:13:33.579Z,980.02
2022-11-25T22:14:33.656Z,980.00
2022-11-25T22:15:33.669Z,980.02
2022-11-25T22:16:33.763Z,980.01
2022-11-25T22:17:33.748Z,980.00
2022-11-25T22:18:33.814Z,980.00
2022-11-25T22:19:33.874Z,980.02
2022-11-25T22:20:33.896Z,980.03
2022-11-25T22:21:33.939Z,980.01
2022-11-25T22:22:34.016Z,980.03
2022-11-25T22:23:34.020Z,980.04
2022-11-25T22:24:34.068Z,980.04
2022-11-25T22:25:34.121Z,980.05
2022-11-25T22:26:34.167Z,980.04
2022-11-25T22:27:34.240Z,980.04
2022-11-25T22:28:34.279Z,980.03
2022-11-25T22:29:34.296Z,980.07
2022-11-25T22:30:34.340Z,980.08
2022-11-25T22:31:34.444Z,980.06
2022-11-25T22:32:34.443Z,980.09
2022-11-25T22:33:34.485Z,980.10
2022-11-25T22:34:34.541Z,980.08
2022-11-25T22:35:34.574Z,980.11
2022-11-25T22:36:34.619Z,980.11
2022-11-25T22:37:34.664Z,980.11
2022-11-25T22:38:34.737Z,980.10
2022-11-25T22:39:34.761Z,980.13
2022-11-25T22:40:35.709Z,980.15
2022-11-25T22:41:34.844Z,980.15
2022-11-25T22:42:34.891Z,980.11
2022-11-25T22:43:34.958Z,980.15
2022-11-25T22:44:35.258Z,980.16
2022-11-25T22:45:35.094Z,980.16
2022-11-25T22:46:35.063Z,980.17
2022-11-25T22:47:35.120Z,980.14
2022-11-25T22:48:35.187Z,980.14
2022-11-25T22:49:35.208Z,980.14
2022-11-25T22:50:35.295Z,980.12
2022-11-25T22:51:35.292Z,980.12
2022-11-25T22:52:35.372Z,980.11
2022-11-25T22:53:36.214Z,980.10
2022-11-25T22:54:35.662Z,980.10
2022-11-25T22:55:35.504Z,980.09
2022-11-25T22:56:35.532Z,980.12
2022-11-25T22:57:35.561Z,980.12
2022-11-25T22:58:35.616Z,980.11
2022-11-25T22:59:36.204Z,980.12
2022-11-25T23:00:35.825Z,980.11
2022-11-25T23:01:35.782Z,980.16
2022-11-25T23:02:35.804Z,980.16
2022-11-25T23:03:35.847Z,980.15
2022-11-25T23:04:36.201Z,980.21
2022-11-25T23:05:35.927Z,980.17
2022-11-25T23:06:35.971Z,980.20
2022-11-25T23:07:36.070Z,980.19
2022-11-25T23:08:36.079Z,980.18
2022-11-25T23:09:36.112Z,980.21
2022-11-25T23:10:36.159Z,980.22
2022-11-25T23:11:39.979Z,980.18
2022-11-25T23:12:36.257Z,980.23
2022-11-25T23:13:36.293Z,980.22
2022-11-25T23:14:36.631Z,980.24
2022-11-25T23:15:36.391Z,980.20
2022-11-25T23:16:36.447Z,980.22
2022-11-25T23:17:36.465Z,980.21
2022-11-25T23:18:38.485Z,980.23
2022-11-25T23:19:36.554Z,980.20
2022-11-25T23:20:36.633Z,980.24
2022-11-25T23:21:36.645Z,980.22
2022-11-25T23:22:36.696Z,980.27
2022-11-25T23:23:36.758Z,980.25
2022-11-25T23:24:37.893Z,980.30
2022-11-25T23:25:36.830Z,980.34
2022-11-25T23:26:36.865Z,980.34
2022-11-25T23:27:36.922Z,980.35
2022-11-25T23:28:36.989Z,980.39
2022-11-25T23:29:36.996Z,980.39
2022-11-25T23:30:37.048Z,980.41
2022-11-25T23:31:37.163Z,980.40
2022-11-25T23:32:37.128Z,980.43
2022-11-25T23:33:37.212Z,980.45
2022-11-25T23:34:37.518Z,980.47
2022-11-25T23:35:37.276Z,980.46
2022-11-25T23:36:37.308Z,980.49
2022-11-25T23:37:37.387Z,980.46
2022-11-25T23:38:37.414Z,980.51
2022-11-25T23:39:37.447Z,980.48
2022-11-25T23:40:37.488Z,980.49
2022-11-25T23:41:37.565Z,980.51
2022-11-25T23:42:37.591Z,980.47
2022-11-25T23:43:37.624Z,980.54
2022-11-25T23:44:37.921Z,980.50
2022-11-25T23:45:37.747Z,980.46
2022-11-25T23:46:37.753Z,980.49
2022-11-25T23:47:37.799Z,980.48
2022-11-25T23:48:37.835Z,980.48
2022-11-25T23:49:37.912Z,980.48
2022-11-25T23:50:37.924Z,980.50
2022-11-25T23:51:37.980Z,980.48
2022-11-25T23:52:38.017Z,980.46
2022-11-25T23:53:38.058Z,980.48
2022-11-25T23:54:38.277Z,980.50
2022-11-25T23:55:38.187Z,980.48
2022-11-25T23:56:38.198Z,980.52
2022-11-25T23:57:38.237Z,980.52
2022-11-25T23:58:38.274Z,980.55
2022-11-25T23:59:38.327Z,980.53
